Castor, Louisiana
Current Conditions -  °F | °C
As of 3:14 PM on Friday 24 Oct 2014 (Local Time) from KMNE Reporting Station
Clear Clear  
Wind Chill: 75°   Ceiling: Unl
Heat Index: 75°   Visibility: 10mi
Dew Point: 52°   Wind: 5mph
Humidity: 44%   Direction: 10°N
Pressure: 30.12"   Gusts: NA
Location:  32.25°N, 93.17°W
Report Text: KMNE 242014Z AUTO 01004KT 10SM CLR 24/11 A3012 RMK AO2
Loading
Personal Weather Stations






























Interactive Weather Map
Tropical Storm Tracking
New forecast layout! Learn more

10-Day Weather Forecast

Advertisements
Track Severe Weather on mobile